sensor_id;sensor_type;location;lat;lon;timestamp;temperature;humidity
32534;DHT22;18973;48.580;8.912;2023-07-24T00:01:19;20.60;92.00
32534;DHT22;18973;48.580;8.912;2023-07-24T00:03:45;20.70;91.50
32534;DHT22;18973;48.580;8.912;2023-07-24T00:06:11;20.60;92.60
32534;DHT22;18973;48.580;8.912;2023-07-24T00:08:37;20.70;92.80
32534;DHT22;18973;48.580;8.912;2023-07-24T00:11:06;20.50;93.00
32534;DHT22;18973;48.580;8.912;2023-07-24T00:13:32;20.50;92.90
32534;DHT22;18973;48.580;8.912;2023-07-24T00:15:57;20.60;92.80
32534;DHT22;18973;48.580;8.912;2023-07-24T00:18:23;20.50;92.80
32534;DHT22;18973;48.580;8.912;2023-07-24T00:20:49;20.60;92.90
32534;DHT22;18973;48.580;8.912;2023-07-24T00:23:14;20.70;92.80
32534;DHT22;18973;48.580;8.912;2023-07-24T00:25:40;20.80;93.50
32534;DHT22;18973;48.580;8.912;2023-07-24T00:28:06;20.70;93.70
32534;DHT22;18973;48.580;8.912;2023-07-24T00:30:31;20.70;93.90
32534;DHT22;18973;48.580;8.912;2023-07-24T00:32:57;20.60;94.30
32534;DHT22;18973;48.580;8.912;2023-07-24T00:35:23;20.20;94.80
32534;DHT22;18973;48.580;8.912;2023-07-24T00:37:48;20.30;94.90
32534;DHT22;18973;48.580;8.912;2023-07-24T00:40:14;20.20;95.10
32534;DHT22;18973;48.580;8.912;2023-07-24T00:42:40;19.90;95.70
32534;DHT22;18973;48.580;8.912;2023-07-24T00:45:06;19.90;95.80
32534;DHT22;18973;48.580;8.912;2023-07-24T00:47:32;19.80;95.80
32534;DHT22;18973;48.580;8.912;2023-07-24T00:49:58;20.00;95.90
32534;DHT22;18973;48.580;8.912;2023-07-24T00:52:24;20.00;96.20
32534;DHT22;18973;48.580;8.912;2023-07-24T00:54:50;19.90;96.20
32534;DHT22;18973;48.580;8.912;2023-07-24T00:57:16;20.00;96.20
32534;DHT22;18973;48.580;8.912;2023-07-24T00:59:42;20.00;96.30
32534;DHT22;18973;48.580;8.912;2023-07-24T01:02:08;19.90;96.80
32534;DHT22;18973;48.580;8.912;2023-07-24T01:04:34;19.70;97.20
32534;DHT22;18973;48.580;8.912;2023-07-24T01:07:00;19.70;97.40
32534;DHT22;18973;48.580;8.912;2023-07-24T01:09:26;19.70;97.20
32534;DHT22;18973;48.580;8.912;2023-07-24T01:15:10;19.50;97.40
32534;DHT22;18973;48.580;8.912;2023-07-24T01:17:45;19.50;97.20
32534;DHT22;18973;48.580;8.912;2023-07-24T01:20:13;19.40;97.00
32534;DHT22;18973;48.580;8.912;2023-07-24T01:25:35;19.60;96.40
32534;DHT22;18973;48.580;8.912;2023-07-24T01:28:09;19.70;96.30
32534;DHT22;18973;48.580;8.912;2023-07-24T01:30:35;19.50;96.70
32534;DHT22;18973;48.580;8.912;2023-07-24T01:33:01;19.50;96.50
32534;DHT22;18973;48.580;8.912;2023-07-24T01:35:27;19.60;96.50
32534;DHT22;18973;48.580;8.912;2023-07-24T01:37:56;19.60;96.80
32534;DHT22;18973;48.580;8.912;2023-07-24T01:40:23;19.50;97.20
32534;DHT22;18973;48.580;8.912;2023-07-24T01:42:49;19.50;97.70
32534;DHT22;18973;48.580;8.912;2023-07-24T01:45:15;19.20;97.90
32534;DHT22;18973;48.580;8.912;2023-07-24T01:47:41;19.20;98.20
32534;DHT22;18973;48.580;8.912;2023-07-24T01:50:07;19.30;98.20
32534;DHT22;18973;48.580;8.912;2023-07-24T01:52:33;19.30;98.40
32534;DHT22;18973;48.580;8.912;2023-07-24T01:54:59;19.30;98.60
32534;DHT22;18973;48.580;8.912;2023-07-24T01:57:24;19.20;99.00
32534;DHT22;18973;48.580;8.912;2023-07-24T01:59:50;19.20;98.90
32534;DHT22;18973;48.580;8.912;2023-07-24T02:02:15;19.00;99.80
32534;DHT22;18973;48.580;8.912;2023-07-24T02:04:41;19.00;99.90
32534;DHT22;18973;48.580;8.912;2023-07-24T02:07:07;19.20;99.40
32534;DHT22;18973;48.580;8.912;2023-07-24T02:09:32;19.10;99.50
32534;DHT22;18973;48.580;8.912;2023-07-24T02:11:58;19.00;99.90
32534;DHT22;18973;48.580;8.912;2023-07-24T02:14:24;18.80;99.90
32534;DHT22;18973;48.580;8.912;2023-07-24T02:16:49;18.80;99.90
32534;DHT22;18973;48.580;8.912;2023-07-24T02:19:15;18.80;99.90
32534;DHT22;18973;48.580;8.912;2023-07-24T02:21:41;18.80;99.90
32534;DHT22;18973;48.580;8.912;2023-07-24T02:24:06;18.90;99.90
32534;DHT22;18973;48.580;8.912;2023-07-24T02:26:32;18.60;99.90
32534;DHT22;18973;48.580;8.912;2023-07-24T02:28:58;18.50;99.90
32534;DHT22;18973;48.580;8.912;2023-07-24T02:31:24;18.60;99.90
32534;DHT22;18973;48.580;8.912;2023-07-24T02:33:49;18.40;99.90
32534;DHT22;18973;48.580;8.912;2023-07-24T02:36:15;18.50;99.90
32534;DHT22;18973;48.580;8.912;2023-07-24T02:38:41;18.30;99.90
32534;DHT22;18973;48.580;8.912;2023-07-24T02:41:06;18.10;99.90
32534;DHT22;18973;48.580;8.912;2023-07-24T02:43:32;18.00;99.90
32534;DHT22;18973;48.580;8.912;2023-07-24T02:46:04;18.00;99.90
32534;DHT22;18973;48.580;8.912;2023-07-24T02:48:29;18.10;99.90
32534;DHT22;18973;48.580;8.912;2023-07-24T02:50:55;18.30;99.90
32534;DHT22;18973;48.580;8.912;2023-07-24T02:53:21;18.40;99.90
32534;DHT22;18973;48.580;8.912;2023-07-24T02:55:47;18.50;99.90
32534;DHT22;18973;48.580;8.912;2023-07-24T02:58:13;18.50;99.90
32534;DHT22;18973;48.580;8.912;2023-07-24T03:00:39;18.20;99.90
32534;DHT22;18973;48.580;8.912;2023-07-24T03:03:05;18.00;99.90
32534;DHT22;18973;48.580;8.912;2023-07-24T03:05:31;17.80;99.90
32534;DHT22;18973;48.580;8.912;2023-07-24T03:07:57;17.70;99.90
32534;DHT22;18973;48.580;8.912;2023-07-24T03:10:23;17.90;99.90
32534;DHT22;18973;48.580;8.912;2023-07-24T03:12:49;17.90;99.90
32534;DHT22;18973;48.580;8.912;2023-07-24T03:15:14;17.80;99.90
32534;DHT22;18973;48.580;8.912;2023-07-24T03:17:40;17.90;99.90
32534;DHT22;18973;48.580;8.912;2023-07-24T03:20:23;18.00;99.90
32534;DHT22;18973;48.580;8.912;2023-07-24T03:22:49;18.10;99.90
32534;DHT22;18973;48.580;8.912;2023-07-24T03:25:15;18.20;99.90
32534;DHT22;18973;48.580;8.912;2023-07-24T03:27:41;17.90;99.90
32534;DHT22;18973;48.580;8.912;2023-07-24T03:30:07;17.80;99.90
32534;DHT22;18973;48.580;8.912;2023-07-24T03:32:32;17.80;99.90
32534;DHT22;18973;48.580;8.912;2023-07-24T03:34:58;17.90;99.90
32534;DHT22;18973;48.580;8.912;2023-07-24T03:37:24;18.10;99.90
32534;DHT22;18973;48.580;8.912;2023-07-24T03:39:49;17.70;99.90
32534;DHT22;18973;48.580;8.912;2023-07-24T03:42:28;17.70;99.90
32534;DHT22;18973;48.580;8.912;2023-07-24T03:44:55;17.80;99.90
32534;DHT22;18973;48.580;8.912;2023-07-24T03:47:21;17.70;99.90
32534;DHT22;18973;48.580;8.912;2023-07-24T03:49:47;17.70;99.90
32534;DHT22;18973;48.580;8.912;2023-07-24T03:52:12;17.80;99.90
32534;DHT22;18973;48.580;8.912;2023-07-24T03:54:38;17.80;99.90
32534;DHT22;18973;48.580;8.912;2023-07-24T03:57:04;18.00;99.90
32534;DHT22;18973;48.580;8.912;2023-07-24T03:59:30;17.90;99.90
32534;DHT22;18973;48.580;8.912;2023-07-24T04:01:56;17.90;99.90
32534;DHT22;18973;48.580;8.912;2023-07-24T04:04:22;18.00;99.90
32534;DHT22;18973;48.580;8.912;2023-07-24T04:06:48;18.10;99.90
32534;DHT22;18973;48.580;8.912;2023-07-24T04:09:14;18.20;99.90
32534;DHT22;18973;48.580;8.912;2023-07-24T04:11:43;18.30;99.90
32534;DHT22;18973;48.580;8.912;2023-07-24T04:14:09;18.20;99.90
32534;DHT22;18973;48.580;8.912;2023-07-24T04:16:36;18.20;99.90
32534;DHT22;18973;48.580;8.912;2023-07-24T04:19:02;18.30;99.90
32534;DHT22;18973;48.580;8.912;2023-07-24T04:21:28;18.40;99.90
32534;DHT22;18973;48.580;8.912;2023-07-24T04:23:54;18.20;99.90
32534;DHT22;18973;48.580;8.912;2023-07-24T04:26:20;18.20;99.90
32534;DHT22;18973;48.580;8.912;2023-07-24T04:28:45;18.30;99.90
32534;DHT22;18973;48.580;8.912;2023-07-24T04:31:11;18.30;99.90
32534;DHT22;18973;48.580;8.912;2023-07-24T04:33:37;18.50;99.90
32534;DHT22;18973;48.580;8.912;2023-07-24T04:36:03;18.60;99.90
32534;DHT22;18973;48.580;8.912;2023-07-24T04:38:28;18.60;99.90
32534;DHT22;18973;48.580;8.912;2023-07-24T04:40:54;18.60;99.90
32534;DHT22;18973;48.580;8.912;2023-07-24T04:43:19;18.60;99.90
32534;DHT22;18973;48.580;8.912;2023-07-24T04:45:45;18.50;99.90
32534;DHT22;18973;48.580;8.912;2023-07-24T04:48:11;18.60;99.90
32534;DHT22;18973;48.580;8.912;2023-07-24T04:50:36;18.90;99.90
32534;DHT22;18973;48.580;8.912;2023-07-24T04:53:02;19.00;99.90
32534;DHT22;18973;48.580;8.912;2023-07-24T04:55:28;19.10;99.90
32534;DHT22;18973;48.580;8.912;2023-07-24T04:57:54;19.20;99.90
32534;DHT22;18973;48.580;8.912;2023-07-24T05:00:19;19.30;99.90
32534;DHT22;18973;48.580;8.912;2023-07-24T05:02:45;19.40;99.90
32534;DHT22;18973;48.580;8.912;2023-07-24T05:05:11;19.30;99.90
32534;DHT22;18973;48.580;8.912;2023-07-24T05:07:36;19.10;99.90
32534;DHT22;18973;48.580;8.912;2023-07-24T05:10:02;19.20;99.90
32534;DHT22;18973;48.580;8.912;2023-07-24T05:12:28;19.30;99.90
32534;DHT22;18973;48.580;8.912;2023-07-24T05:14:54;19.20;99.90
32534;DHT22;18973;48.580;8.912;2023-07-24T05:17:19;19.30;99.90
32534;DHT22;18973;48.580;8.912;2023-07-24T05:19:45;19.30;99.90
32534;DHT22;18973;48.580;8.912;2023-07-24T05:22:11;19.30;99.90
32534;DHT22;18973;48.580;8.912;2023-07-24T05:24:37;19.40;99.90
32534;DHT22;18973;48.580;8.912;2023-07-24T05:27:04;19.50;99.90
32534;DHT22;18973;48.580;8.912;2023-07-24T05:29:31;19.50;99.90
32534;DHT22;18973;48.580;8.912;2023-07-24T05:31:56;19.30;99.90
32534;DHT22;18973;48.580;8.912;2023-07-24T05:34:23;19.30;99.90
32534;DHT22;18973;48.580;8.912;2023-07-24T05:36:48;19.30;99.90
32534;DHT22;18973;48.580;8.912;2023-07-24T05:39:14;19.30;99.90
32534;DHT22;18973;48.580;8.912;2023-07-24T05:41:39;19.40;99.90
32534;DHT22;18973;48.580;8.912;2023-07-24T05:44:05;19.40;99.90
32534;DHT22;18973;48.580;8.912;2023-07-24T05:46:31;18.80;99.90
32534;DHT22;18973;48.580;8.912;2023-07-24T05:48:56;18.80;99.90
32534;DHT22;18973;48.580;8.912;2023-07-24T05:51:22;18.80;99.90
32534;DHT22;18973;48.580;8.912;2023-07-24T05:53:48;18.90;99.90
32534;DHT22;18973;48.580;8.912;2023-07-24T05:56:14;18.80;99.90
32534;DHT22;18973;48.580;8.912;2023-07-24T05:58:39;18.60;99.90
32534;DHT22;18973;48.580;8.912;2023-07-24T06:01:05;18.80;99.90
32534;DHT22;18973;48.580;8.912;2023-07-24T06:03:33;18.90;99.90
32534;DHT22;18973;48.580;8.912;2023-07-24T06:05:59;19.10;99.90
32534;DHT22;18973;48.580;8.912;2023-07-24T06:08:25;19.20;99.90
32534;DHT22;18973;48.580;8.912;2023-07-24T06:10:51;19.10;99.90
32534;DHT22;18973;48.580;8.912;2023-07-24T06:13:17;19.30;99.90
32534;DHT22;18973;48.580;8.912;2023-07-24T06:15:47;19.30;99.90
32534;DHT22;18973;48.580;8.912;2023-07-24T06:18:12;19.30;99.90
32534;DHT22;18973;48.580;8.912;2023-07-24T06:20:38;19.30;99.90
32534;DHT22;18973;48.580;8.912;2023-07-24T06:23:04;19.70;99.90
32534;DHT22;18973;48.580;8.912;2023-07-24T06:25:30;19.90;99.90
32534;DHT22;18973;48.580;8.912;2023-07-24T06:27:57;19.70;99.90
32534;DHT22;18973;48.580;8.912;2023-07-24T06:30:22;19.70;99.90
32534;DHT22;18973;48.580;8.912;2023-07-24T06:32:48;19.70;99.90
32534;DHT22;18973;48.580;8.912;2023-07-24T06:35:14;19.90;99.90
32534;DHT22;18973;48.580;8.912;2023-07-24T06:37:40;20.00;99.90
32534;DHT22;18973;48.580;8.912;2023-07-24T06:40:07;20.00;99.90
32534;DHT22;18973;48.580;8.912;2023-07-24T06:42:33;20.00;99.90
32534;DHT22;18973;48.580;8.912;2023-07-24T06:44:59;20.20;99.90
32534;DHT22;18973;48.580;8.912;2023-07-24T06:47:25;20.40;99.90
32534;DHT22;18973;48.580;8.912;2023-07-24T06:49:50;20.20;99.90
32534;DHT22;18973;48.580;8.912;2023-07-24T06:52:16;20.10;99.90
32534;DHT22;18973;48.580;8.912;2023-07-24T06:54:42;20.20;99.90
32534;DHT22;18973;48.580;8.912;2023-07-24T06:57:07;20.40;99.90
32534;DHT22;18973;48.580;8.912;2023-07-24T06:59:33;20.40;99.90
32534;DHT22;18973;48.580;8.912;2023-07-24T07:01:59;20.40;99.90
32534;DHT22;18973;48.580;8.912;2023-07-24T07:04:25;20.40;99.90
32534;DHT22;18973;48.580;8.912;2023-07-24T07:06:50;20.40;99.90
32534;DHT22;18973;48.580;8.912;2023-07-24T07:09:16;20.20;99.90
32534;DHT22;18973;48.580;8.912;2023-07-24T07:11:41;20.30;99.90
32534;DHT22;18973;48.580;8.912;2023-07-24T07:14:09;20.30;99.90
32534;DHT22;18973;48.580;8.912;2023-07-24T07:16:34;20.40;99.90
32534;DHT22;18973;48.580;8.912;2023-07-24T07:19:00;20.40;99.90
32534;DHT22;18973;48.580;8.912;2023-07-24T07:21:26;20.40;99.90
32534;DHT22;18973;48.580;8.912;2023-07-24T07:23:52;20.40;99.90
32534;DHT22;18973;48.580;8.912;2023-07-24T07:26:17;20.40;99.90
32534;DHT22;18973;48.580;8.912;2023-07-24T07:28:43;20.20;99.90
32534;DHT22;18973;48.580;8.912;2023-07-24T07:31:10;20.30;99.90
32534;DHT22;18973;48.580;8.912;2023-07-24T07:33:36;20.40;99.90
32534;DHT22;18973;48.580;8.912;2023-07-24T07:36:02;20.40;99.90
32534;DHT22;18973;48.580;8.912;2023-07-24T07:38:29;20.60;99.90
32534;DHT22;18973;48.580;8.912;2023-07-24T07:40:55;20.70;99.90
32534;DHT22;18973;48.580;8.912;2023-07-24T07:43:20;20.70;99.90
32534;DHT22;18973;48.580;8.912;2023-07-24T07:45:47;20.70;99.90
32534;DHT22;18973;48.580;8.912;2023-07-24T07:48:13;20.80;99.90
32534;DHT22;18973;48.580;8.912;2023-07-24T07:50:38;20.80;99.90
32534;DHT22;18973;48.580;8.912;2023-07-24T07:53:04;20.70;99.90
32534;DHT22;18973;48.580;8.912;2023-07-24T07:55:30;20.70;99.90
32534;DHT22;18973;48.580;8.912;2023-07-24T07:57:55;20.60;99.90
32534;DHT22;18973;48.580;8.912;2023-07-24T08:00:21;20.50;99.90
32534;DHT22;18973;48.580;8.912;2023-07-24T08:02:47;20.50;99.90
32534;DHT22;18973;48.580;8.912;2023-07-24T08:05:13;20.40;99.90
32534;DHT22;18973;48.580;8.912;2023-07-24T08:07:38;20.50;99.90
32534;DHT22;18973;48.580;8.912;2023-07-24T08:10:05;20.40;99.90
32534;DHT22;18973;48.580;8.912;2023-07-24T08:12:32;20.50;99.90
32534;DHT22;18973;48.580;8.912;2023-07-24T08:14:57;20.30;99.90
32534;DHT22;18973;48.580;8.912;2023-07-24T08:17:23;19.90;99.90
32534;DHT22;18973;48.580;8.912;2023-07-24T08:19:49;20.00;99.90
32534;DHT22;18973;48.580;8.912;2023-07-24T08:22:14;20.00;99.90
32534;DHT22;18973;48.580;8.912;2023-07-24T08:24:40;20.00;99.90
32534;DHT22;18973;48.580;8.912;2023-07-24T08:27:06;19.90;99.90
32534;DHT22;18973;48.580;8.912;2023-07-24T08:29:32;19.90;99.90
32534;DHT22;18973;48.580;8.912;2023-07-24T08:31:58;19.90;99.90
32534;DHT22;18973;48.580;8.912;2023-07-24T08:34:24;19.80;99.90
32534;DHT22;18973;48.580;8.912;2023-07-24T08:36:50;19.80;99.90
32534;DHT22;18973;48.580;8.912;2023-07-24T08:39:15;19.90;99.90
32534;DHT22;18973;48.580;8.912;2023-07-24T08:41:41;19.90;99.90
32534;DHT22;18973;48.580;8.912;2023-07-24T08:44:07;19.70;99.90
32534;DHT22;18973;48.580;8.912;2023-07-24T08:46:37;19.80;99.90
32534;DHT22;18973;48.580;8.912;2023-07-24T08:49:04;19.80;99.90
32534;DHT22;18973;48.580;8.912;2023-07-24T08:51:30;19.90;99.90
32534;DHT22;18973;48.580;8.912;2023-07-24T08:53:57;20.00;99.90
32534;DHT22;18973;48.580;8.912;2023-07-24T08:56:23;20.00;99.90
32534;DHT22;18973;48.580;8.912;2023-07-24T08:58:49;20.10;99.90
32534;DHT22;18973;48.580;8.912;2023-07-24T09:01:15;20.20;99.90
32534;DHT22;18973;48.580;8.912;2023-07-24T09:03:43;20.30;99.90
32534;DHT22;18973;48.580;8.912;2023-07-24T09:06:12;20.50;99.90
32534;DHT22;18973;48.580;8.912;2023-07-24T09:08:40;20.50;99.90
32534;DHT22;18973;48.580;8.912;2023-07-24T09:11:07;20.70;99.90
32534;DHT22;18973;48.580;8.912;2023-07-24T09:13:36;20.80;99.90
32534;DHT22;18973;48.580;8.912;2023-07-24T09:16:02;20.90;99.90
32534;DHT22;18973;48.580;8.912;2023-07-24T09:18:44;21.00;99.90
32534;DHT22;18973;48.580;8.912;2023-07-24T09:21:10;21.00;99.90
32534;DHT22;18973;48.580;8.912;2023-07-24T09:23:39;21.00;99.90
32534;DHT22;18973;48.580;8.912;2023-07-24T09:26:09;21.00;99.90
32534;DHT22;18973;48.580;8.912;2023-07-24T09:28:35;20.90;99.90
32534;DHT22;18973;48.580;8.912;2023-07-24T09:31:01;20.90;99.90
32534;DHT22;18973;48.580;8.912;2023-07-24T09:33:39;21.00;99.90
32534;DHT22;18973;48.580;8.912;2023-07-24T09:36:07;20.90;99.90
32534;DHT22;18973;48.580;8.912;2023-07-24T09:38:34;20.90;99.90
32534;DHT22;18973;48.580;8.912;2023-07-24T09:41:01;20.90;99.90
32534;DHT22;18973;48.580;8.912;2023-07-24T09:43:28;20.90;99.90
32534;DHT22;18973;48.580;8.912;2023-07-24T09:45:55;20.80;99.90
32534;DHT22;18973;48.580;8.912;2023-07-24T09:48:24;20.80;99.90
32534;DHT22;18973;48.580;8.912;2023-07-24T09:50:57;20.80;99.90
32534;DHT22;18973;48.580;8.912;2023-07-24T09:56:04;20.60;99.90
32534;DHT22;18973;48.580;8.912;2023-07-24T09:58:34;20.50;99.90
32534;DHT22;18973;48.580;8.912;2023-07-24T10:01:03;20.50;99.90
32534;DHT22;18973;48.580;8.912;2023-07-24T10:03:32;20.40;99.90
32534;DHT22;18973;48.580;8.912;2023-07-24T10:06:00;20.30;99.90
32534;DHT22;18973;48.580;8.912;2023-07-24T10:08:26;20.30;99.90
32534;DHT22;18973;48.580;8.912;2023-07-24T10:10:52;20.30;99.90
32534;DHT22;18973;48.580;8.912;2023-07-24T10:13:20;20.20;99.90
32534;DHT22;18973;48.580;8.912;2023-07-24T10:15:47;20.10;99.90
32534;DHT22;18973;48.580;8.912;2023-07-24T10:18:16;20.00;99.90
32534;DHT22;18973;48.580;8.912;2023-07-24T10:20:44;20.00;99.90
32534;DHT22;18973;48.580;8.912;2023-07-24T10:23:15;20.00;99.90
32534;DHT22;18973;48.580;8.912;2023-07-24T10:25:44;20.10;99.90
32534;DHT22;18973;48.580;8.912;2023-07-24T10:28:11;20.10;99.90
32534;DHT22;18973;48.580;8.912;2023-07-24T10:30:38;19.90;99.90
32534;DHT22;18973;48.580;8.912;2023-07-24T10:33:13;20.00;99.90
32534;DHT22;18973;48.580;8.912;2023-07-24T10:35:44;19.90;99.90
32534;DHT22;18973;48.580;8.912;2023-07-24T10:38:12;20.00;99.90
32534;DHT22;18973;48.580;8.912;2023-07-24T10:40:38;19.90;99.90
32534;DHT22;18973;48.580;8.912;2023-07-24T10:43:06;19.80;99.90
32534;DHT22;18973;48.580;8.912;2023-07-24T10:45:48;19.70;99.90
32534;DHT22;18973;48.580;8.912;2023-07-24T10:48:15;19.70;99.90
32534;DHT22;18973;48.580;8.912;2023-07-24T10:50:43;19.70;99.90
32534;DHT22;18973;48.580;8.912;2023-07-24T10:53:15;19.60;99.90
32534;DHT22;18973;48.580;8.912;2023-07-24T10:55:42;19.50;99.90
32534;DHT22;18973;48.580;8.912;2023-07-24T10:58:08;19.30;99.90
32534;DHT22;18973;48.580;8.912;2023-07-24T11:00:34;19.20;99.90
32534;DHT22;18973;48.580;8.912;2023-07-24T11:03:00;19.10;99.90
32534;DHT22;18973;48.580;8.912;2023-07-24T11:05:26;19.20;99.90
32534;DHT22;18973;48.580;8.912;2023-07-24T11:07:52;19.30;99.90
32534;DHT22;18973;48.580;8.912;2023-07-24T11:10:22;19.40;99.90
32534;DHT22;18973;48.580;8.912;2023-07-24T11:12:48;19.30;99.90
32534;DHT22;18973;48.580;8.912;2023-07-24T11:15:15;19.30;99.90
32534;DHT22;18973;48.580;8.912;2023-07-24T11:17:42;19.30;99.90
32534;DHT22;18973;48.580;8.912;2023-07-24T11:20:13;19.30;99.90
32534;DHT22;18973;48.580;8.912;2023-07-24T11:22:43;19.30;99.90
32534;DHT22;18973;48.580;8.912;2023-07-24T11:25:12;19.20;99.90
32534;DHT22;18973;48.580;8.912;2023-07-24T11:27:42;19.20;99.90
32534;DHT22;18973;48.580;8.912;2023-07-24T11:30:10;19.10;99.90
32534;DHT22;18973;48.580;8.912;2023-07-24T11:32:41;19.20;99.90
32534;DHT22;18973;48.580;8.912;2023-07-24T11:35:08;19.40;99.90
32534;DHT22;18973;48.580;8.912;2023-07-24T11:37:35;19.50;99.90
32534;DHT22;18973;48.580;8.912;2023-07-24T11:40:03;19.60;99.90
32534;DHT22;18973;48.580;8.912;2023-07-24T11:42:36;19.70;99.90
32534;DHT22;18973;48.580;8.912;2023-07-24T11:45:02;19.80;99.90
32534;DHT22;18973;48.580;8.912;2023-07-24T11:47:28;19.80;99.90
32534;DHT22;18973;48.580;8.912;2023-07-24T11:50:01;19.80;99.90
32534;DHT22;18973;48.580;8.912;2023-07-24T11:55:06;20.00;99.90
32534;DHT22;18973;48.580;8.912;2023-07-24T11:57:32;20.10;99.90
32534;DHT22;18973;48.580;8.912;2023-07-24T11:59:58;20.40;99.90
32534;DHT22;18973;48.580;8.912;2023-07-24T12:02:26;20.60;99.90
32534;DHT22;18973;48.580;8.912;2023-07-24T12:04:56;20.60;99.90
32534;DHT22;18973;48.580;8.912;2023-07-24T12:07:33;20.70;99.90
32534;DHT22;18973;48.580;8.912;2023-07-24T12:10:00;20.90;99.90
32534;DHT22;18973;48.580;8.912;2023-07-24T12:15:05;21.10;99.90
32534;DHT22;18973;48.580;8.912;2023-07-24T12:17:31;21.30;99.90
32534;DHT22;18973;48.580;8.912;2023-07-24T12:19:57;21.40;99.90
32534;DHT22;18973;48.580;8.912;2023-07-24T12:22:22;21.40;99.90
32534;DHT22;18973;48.580;8.912;2023-07-24T12:24:48;21.40;99.90
32534;DHT22;18973;48.580;8.912;2023-07-24T12:27:14;21.40;99.90
32534;DHT22;18973;48.580;8.912;2023-07-24T12:29:39;21.60;99.90
32534;DHT22;18973;48.580;8.912;2023-07-24T12:32:05;21.70;99.90
32534;DHT22;18973;48.580;8.912;2023-07-24T12:34:31;21.80;99.90
32534;DHT22;18973;48.580;8.912;2023-07-24T12:36:57;21.80;99.90
32534;DHT22;18973;48.580;8.912;2023-07-24T12:39:22;21.80;99.90
32534;DHT22;18973;48.580;8.912;2023-07-24T12:41:48;22.00;99.90
32534;DHT22;18973;48.580;8.912;2023-07-24T12:44:14;22.10;99.90
32534;DHT22;18973;48.580;8.912;2023-07-24T12:46:39;22.20;99.90
32534;DHT22;18973;48.580;8.912;2023-07-24T12:49:05;22.20;99.90
32534;DHT22;18973;48.580;8.912;2023-07-24T12:51:31;22.20;99.90
32534;DHT22;18973;48.580;8.912;2023-07-24T12:53:56;22.20;99.90
32534;DHT22;18973;48.580;8.912;2023-07-24T12:56:22;22.30;99.90
32534;DHT22;18973;48.580;8.912;2023-07-24T12:58:48;22.40;99.90
32534;DHT22;18973;48.580;8.912;2023-07-24T13:01:13;22.60;99.90
32534;DHT22;18973;48.580;8.912;2023-07-24T13:03:39;22.70;99.90
32534;DHT22;18973;48.580;8.912;2023-07-24T13:06:05;22.80;99.90
32534;DHT22;18973;48.580;8.912;2023-07-24T13:08:30;22.80;99.90
32534;DHT22;18973;48.580;8.912;2023-07-24T13:10:56;22.80;99.90
32534;DHT22;18973;48.580;8.912;2023-07-24T13:13:22;22.90;99.90
32534;DHT22;18973;48.580;8.912;2023-07-24T13:15:47;23.00;99.90
32534;DHT22;18973;48.580;8.912;2023-07-24T13:18:16;23.00;99.90
32534;DHT22;18973;48.580;8.912;2023-07-24T13:20:42;22.90;99.90
32534;DHT22;18973;48.580;8.912;2023-07-24T13:23:08;22.90;99.90
32534;DHT22;18973;48.580;8.912;2023-07-24T13:25:34;22.90;99.90
32534;DHT22;18973;48.580;8.912;2023-07-24T13:27:59;22.90;99.90
32534;DHT22;18973;48.580;8.912;2023-07-24T13:30:25;22.80;99.90
32534;DHT22;18973;48.580;8.912;2023-07-24T13:32:51;22.80;99.90
32534;DHT22;18973;48.580;8.912;2023-07-24T13:35:16;22.90;99.90
32534;DHT22;18973;48.580;8.912;2023-07-24T13:37:42;22.80;99.90
32534;DHT22;18973;48.580;8.912;2023-07-24T13:40:08;22.70;99.90
32534;DHT22;18973;48.580;8.912;2023-07-24T13:42:34;22.70;99.90
32534;DHT22;18973;48.580;8.912;2023-07-24T13:45:00;22.70;99.90
32534;DHT22;18973;48.580;8.912;2023-07-24T13:47:25;22.60;99.90
32534;DHT22;18973;48.580;8.912;2023-07-24T13:49:51;22.50;99.90
32534;DHT22;18973;48.580;8.912;2023-07-24T13:52:17;22.60;99.90
32534;DHT22;18973;48.580;8.912;2023-07-24T13:54:43;22.60;99.90
32534;DHT22;18973;48.580;8.912;2023-07-24T13:57:08;22.60;99.90
32534;DHT22;18973;48.580;8.912;2023-07-24T13:59:37;22.50;99.90
32534;DHT22;18973;48.580;8.912;2023-07-24T14:02:06;22.60;99.90
32534;DHT22;18973;48.580;8.912;2023-07-24T14:04:32;22.80;99.90
32534;DHT22;18973;48.580;8.912;2023-07-24T14:06:58;23.10;99.90
32534;DHT22;18973;48.580;8.912;2023-07-24T14:09:23;23.10;99.90
32534;DHT22;18973;48.580;8.912;2023-07-24T14:11:49;23.10;99.90
32534;DHT22;18973;48.580;8.912;2023-07-24T14:14:17;23.00;99.90
32534;DHT22;18973;48.580;8.912;2023-07-24T14:16:43;22.80;99.90
32534;DHT22;18973;48.580;8.912;2023-07-24T14:19:09;22.80;99.90
32534;DHT22;18973;48.580;8.912;2023-07-24T14:21:34;22.90;99.90
32534;DHT22;18973;48.580;8.912;2023-07-24T14:24:00;23.00;99.90
32534;DHT22;18973;48.580;8.912;2023-07-24T14:26:26;22.90;99.90
32534;DHT22;18973;48.580;8.912;2023-07-24T14:28:52;23.00;99.90
32534;DHT22;18973;48.580;8.912;2023-07-24T14:31:17;23.10;99.90
32534;DHT22;18973;48.580;8.912;2023-07-24T14:33:43;23.20;99.90
32534;DHT22;18973;48.580;8.912;2023-07-24T14:36:09;23.10;99.90
32534;DHT22;18973;48.580;8.912;2023-07-24T14:38:34;23.00;99.90
32534;DHT22;18973;48.580;8.912;2023-07-24T14:41:00;23.10;99.90
32534;DHT22;18973;48.580;8.912;2023-07-24T14:43:26;23.20;99.90
32534;DHT22;18973;48.580;8.912;2023-07-24T14:45:51;23.30;99.90
32534;DHT22;18973;48.580;8.912;2023-07-24T14:48:17;23.50;99.90
32534;DHT22;18973;48.580;8.912;2023-07-24T14:50:43;23.70;99.90
32534;DHT22;18973;48.580;8.912;2023-07-24T14:53:08;23.70;99.90
32534;DHT22;18973;48.580;8.912;2023-07-24T14:55:34;23.60;99.90
32534;DHT22;18973;48.580;8.912;2023-07-24T14:57:59;23.60;99.90
32534;DHT22;18973;48.580;8.912;2023-07-24T15:00:25;23.60;99.90
32534;DHT22;18973;48.580;8.912;2023-07-24T15:02:51;23.70;99.90
32534;DHT22;18973;48.580;8.912;2023-07-24T15:05:16;23.70;99.90
32534;DHT22;18973;48.580;8.912;2023-07-24T15:07:42;23.80;99.90
32534;DHT22;18973;48.580;8.912;2023-07-24T15:10:08;23.70;99.90
32534;DHT22;18973;48.580;8.912;2023-07-24T15:12:34;23.90;99.90
32534;DHT22;18973;48.580;8.912;2023-07-24T15:14:59;23.80;99.90
32534;DHT22;18973;48.580;8.912;2023-07-24T15:17:25;23.60;99.90
32534;DHT22;18973;48.580;8.912;2023-07-24T15:19:50;23.40;99.90
32534;DHT22;18973;48.580;8.912;2023-07-24T15:22:16;23.30;99.90
32534;DHT22;18973;48.580;8.912;2023-07-24T15:24:42;23.20;99.90
32534;DHT22;18973;48.580;8.912;2023-07-24T15:27:08;23.10;99.90
32534;DHT22;18973;48.580;8.912;2023-07-24T15:29:35;23.00;99.90
32534;DHT22;18973;48.580;8.912;2023-07-24T15:32:01;23.00;99.90
32534;DHT22;18973;48.580;8.912;2023-07-24T15:34:28;23.00;99.90
32534;DHT22;18973;48.580;8.912;2023-07-24T15:36:53;22.90;99.90
32534;DHT22;18973;48.580;8.912;2023-07-24T15:39:19;22.70;99.90